Time;durP1;ratioP1;P1;durP2;ratioP2;P2;SDS_P1;SDS_P2;PMS_P1;PMS_P2;Temp;Humidity;BMP_temperature;BMP_pressure;BME280_temperature;BME280_humidity;BME280_pressure;Samples;Min_cycle;Max_cycle;Signal;HPM_P1;HPM_P2
2023/10/12 00:00:33;;;;;;;11.77;6.93;;;;;;;;;;6214184;28;20195;-66
2023/10/12 00:03:34;;;;;;;11.87;6.50;;;;;;;;;;6208411;28;20267;-67
2023/10/12 00:06:37;;;;;;;9.43;6.90;;;;;;;;;;6211589;28;20219;-67
2023/10/12 00:09:38;;;;;;;11.47;6.80;;;;;;;;;;6216040;28;20183;-67
2023/10/12 00:12:46;;;;;;;11.33;7.20;;;;;;;;;;6203115;28;20219;-67
2023/10/12 00:15:47;;;;;;;10.33;7.13;;;;;;;;;;6227313;28;20215;-67
2023/10/12 00:18:49;;;;;;;11.70;6.73;;;;;;;;;;6218393;28;20199;-67
2023/10/12 00:21:56;;;;;;;10.20;6.80;;;;;;;;;;6214503;28;20187;-67
2023/10/12 00:24:57;;;;;;;10.90;6.90;;;;;;;;;;6226910;28;20265;-67
2023/10/12 00:27:58;;;;;;;9.80;6.53;;;;;;;;;;6211534;28;20191;-67
2023/10/12 00:31:05;;;;;;;9.20;6.70;;;;;;;;;;6212769;28;20223;-67
2023/10/12 00:34:08;;;;;;;10.03;6.70;;;;;;;;;;6214783;28;20234;-67
2023/10/12 00:37:10;;;;;;;9.40;6.10;;;;;;;;;;6230180;28;20179;-67
2023/10/12 00:40:29;;;;;;;11.37;6.17;;;;;;;;;;6215439;28;20190;-67
2023/10/12 00:43:37;;;;;;;12.50;7.00;;;;;;;;;;6222420;28;20290;-66
2023/10/12 00:46:40;;;;;;;11.70;7.23;;;;;;;;;;6232363;28;20184;-66
2023/10/12 00:49:48;;;;;;;10.50;6.53;;;;;;;;;;6230472;28;20187;-67
2023/10/12 00:52:56;;;;;;;8.90;6.57;;;;;;;;;;6208670;28;20191;-67
2023/10/12 00:55:57;;;;;;;10.03;6.73;;;;;;;;;;6212807;28;20210;-66
2023/10/12 00:58:58;;;;;;;8.57;6.67;;;;;;;;;;6219682;28;20187;-66
2023/10/12 01:02:00;;;;;;;9.90;6.90;;;;;;;;;;6205458;28;20182;-66
2023/10/12 01:05:04;;;;;;;10.90;6.27;;;;;;;;;;6210511;28;20190;-67
2023/10/12 01:08:05;;;;;;;13.20;7.37;;;;;;;;;;6210598;28;20190;-66
2023/10/12 01:11:07;;;;;;;10.67;6.67;;;;;;;;;;6228452;28;20209;-66
2023/10/12 01:14:11;;;;;;;13.33;6.60;;;;;;;;;;6213075;28;20248;-66
2023/10/12 01:17:24;;;;;;;11.83;7.30;;;;;;;;;;6214890;28;20202;-66
2023/10/12 01:20:26;;;;;;;10.43;6.53;;;;;;;;;;6206570;28;20211;-67
2023/10/12 01:23:27;;;;;;;10.63;6.67;;;;;;;;;;6223135;28;20190;-67
2023/10/12 01:26:31;;;;;;;10.37;6.30;;;;;;;;;;6208107;28;20261;-67
2023/10/12 01:29:32;;;;;;;11.33;6.53;;;;;;;;;;6217396;28;20184;-67
2023/10/12 01:32:37;;;;;;;9.80;6.17;;;;;;;;;;6212578;28;20199;-67
2023/10/12 01:35:39;;;;;;;11.10;6.70;;;;;;;;;;6225526;28;20226;-67
2023/10/12 01:38:40;;;;;;;12.70;6.60;;;;;;;;;;6204904;28;20199;-67
2023/10/12 01:41:42;;;;;;;12.27;7.37;;;;;;;;;;6195896;28;20195;-67
2023/10/12 01:44:43;;;;;;;9.37;6.83;;;;;;;;;;6216276;28;20191;-67
2023/10/12 01:47:45;;;;;;;11.20;6.63;;;;;;;;;;6208065;28;20189;-67
2023/10/12 01:50:47;;;;;;;8.97;6.50;;;;;;;;;;6215940;28;20191;-67
2023/10/12 01:53:49;;;;;;;9.33;6.33;;;;;;;;;;6199182;28;20309;-67
2023/10/12 01:56:51;;;;;;;9.97;6.87;;;;;;;;;;6209863;28;20214;-67
2023/10/12 01:59:54;;;;;;;13.60;6.53;;;;;;;;;;6240465;28;20187;-67
2023/10/12 02:06:23;;;;;;;9.37;6.13;;;;;;;;;;6204900;28;20196;-67
2023/10/12 02:09:24;;;;;;;12.70;6.40;;;;;;;;;;6218304;28;20190;-67
2023/10/12 02:12:26;;;;;;;12.93;6.63;;;;;;;;;;6212127;28;20199;-67
2023/10/12 02:15:31;;;;;;;11.20;7.43;;;;;;;;;;6214850;28;20301;-67
2023/10/12 02:18:34;;;;;;;10.93;6.63;;;;;;;;;;6207778;28;20215;-67
2023/10/12 02:21:40;;;;;;;13.80;7.13;;;;;;;;;;6221398;28;20240;-67
2023/10/12 02:24:42;;;;;;;11.37;7.47;;;;;;;;;;6212766;28;20262;-67
2023/10/12 02:27:54;;;;;;;12.23;7.07;;;;;;;;;;6201463;28;20249;-67
2023/10/12 02:30:55;;;;;;;11.57;7.00;;;;;;;;;;6215171;28;20231;-67
2023/10/12 02:33:57;;;;;;;8.37;6.33;;;;;;;;;;6229363;28;20214;-67
2023/10/12 02:40:09;;;;;;;12.43;7.47;;;;;;;;;;6238385;28;20282;-67
2023/10/12 02:43:11;;;;;;;12.87;7.07;;;;;;;;;;6217580;28;20201;-67
2023/10/12 02:46:22;;;;;;;10.03;6.83;;;;;;;;;;6216564;28;20198;-67
2023/10/12 02:49:24;;;;;;;14.13;7.50;;;;;;;;;;6207012;28;20195;-67
2023/10/12 02:52:25;;;;;;;11.10;6.50;;;;;;;;;;6227622;28;20213;-67
2023/10/12 02:55:26;;;;;;;12.37;7.80;;;;;;;;;;6219051;28;20233;-67
2023/10/12 02:58:32;;;;;;;9.40;6.33;;;;;;;;;;6211312;28;20210;-67
2023/10/12 03:01:33;;;;;;;14.03;7.53;;;;;;;;;;6211703;28;20270;-67
2023/10/12 03:04:39;;;;;;;12.10;6.87;;;;;;;;;;6224111;28;20309;-67
2023/10/12 03:07:40;;;;;;;10.70;7.60;;;;;;;;;;6209344;28;20200;-66
2023/10/12 03:14:10;;;;;;;13.77;7.20;;;;;;;;;;6242289;28;20211;-67
2023/10/12 03:17:16;;;;;;;11.50;6.93;;;;;;;;;;6214402;28;20186;-67
2023/10/12 03:20:22;;;;;;;10.10;6.60;;;;;;;;;;6220311;28;20203;-67
2023/10/12 03:23:26;;;;;;;12.27;6.93;;;;;;;;;;6210634;28;20217;-67
2023/10/12 03:26:27;;;;;;;11.00;6.53;;;;;;;;;;6210687;28;20203;-67
2023/10/12 03:29:29;;;;;;;10.63;6.30;;;;;;;;;;6222245;28;20221;-66
2023/10/12 03:32:33;;;;;;;15.47;8.00;;;;;;;;;;6206279;28;20200;-67
2023/10/12 03:35:39;;;;;;;10.73;7.03;;;;;;;;;;6223199;28;20264;-67
2023/10/12 03:38:43;;;;;;;12.50;6.80;;;;;;;;;;6212219;28;20191;-66
2023/10/12 03:45:33;;;;;;;9.13;6.40;;;;;;;;;;6248904;28;20199;-67
2023/10/12 03:48:48;;;;;;;11.63;6.77;;;;;;;;;;6227005;28;20200;-67
2023/10/12 03:51:55;;;;;;;12.77;7.20;;;;;;;;;;6213458;28;20199;-67
2023/10/12 03:55:16;;;;;;;11.13;6.93;;;;;;;;;;6209383;28;20212;-67
2023/10/12 03:58:23;;;;;;;10.43;6.90;;;;;;;;;;6219094;28;20198;-67
2023/10/12 04:01:30;;;;;;;11.70;7.13;;;;;;;;;;6216856;28;20274;-67
2023/10/12 04:04:35;;;;;;;15.10;7.63;;;;;;;;;;6221972;28;20195;-67
2023/10/12 04:14:17;;;;;;;9.63;6.70;;;;;;;;;;6229905;28;20218;-67
2023/10/12 04:20:29;;;;;;;13.00;7.00;;;;;;;;;;6223349;28;20229;-67
2023/10/12 04:29:38;;;;;;;10.63;6.87;;;;;;;;;;6238108;28;20249;-67
2023/10/12 04:32:54;;;;;;;12.83;6.80;;;;;;;;;;6216830;28;20196;-67
2023/10/12 04:36:13;;;;;;;16.63;7.43;;;;;;;;;;6201257;28;20221;-67
2023/10/12 04:39:24;;;;;;;10.83;6.40;;;;;;;;;;6229596;28;20289;-67
2023/10/12 04:42:33;;;;;;;12.13;6.67;;;;;;;;;;6230683;28;20183;-68
2023/10/12 04:46:05;;;;;;;13.43;7.10;;;;;;;;;;6205724;28;20202;-68
2023/10/12 04:52:26;;;;;;;13.97;7.60;;;;;;;;;;6227291;28;20222;-67
2023/10/12 04:55:28;;;;;;;9.50;6.50;;;;;;;;;;6215416;28;20229;-67
2023/10/12 05:01:41;;;;;;;7.47;5.33;;;;;;;;;;6219326;28;20269;-67
2023/10/12 05:07:57;;;;;;;10.00;7.13;;;;;;;;;;6237410;28;20219;-67
2023/10/12 05:10:58;;;;;;;14.97;6.43;;;;;;;;;;6210681;28;20207;-68
2023/10/12 05:14:01;;;;;;;13.50;6.70;;;;;;;;;;6222335;28;20203;-68
2023/10/12 05:17:02;;;;;;;11.23;7.43;;;;;;;;;;6206091;28;20337;-67
2023/10/12 05:20:04;;;;;;;10.10;6.47;;;;;;;;;;6199410;28;20254;-67
2023/10/12 05:23:05;;;;;;;12.67;7.47;;;;;;;;;;6207515;28;20214;-68
2023/10/12 05:32:43;;;;;;;14.30;6.97;;;;;;;;;;6210890;28;20275;-67
2023/10/12 05:35:50;;;;;;;11.00;7.40;;;;;;;;;;6210581;28;20223;-67
2023/10/12 05:38:52;;;;;;;11.47;7.07;;;;;;;;;;6202784;28;20197;-67
2023/10/12 05:41:58;;;;;;;11.47;6.17;;;;;;;;;;6201370;28;20203;-68
2023/10/12 05:45:33;;;;;;;9.90;6.80;;;;;;;;;;6198466;28;20207;-67
2023/10/12 05:48:27;;;;;;;13.43;7.20;;;;;;;;;;6201350;28;20204;-68
2023/10/12 05:51:28;;;;;;;10.33;6.07;;;;;;;;;;6209984;28;20188;-67
2023/10/12 05:54:31;;;;;;;10.80;6.80;;;;;;;;;;6186859;28;20209;-68
2023/10/12 05:57:32;;;;;;;14.13;6.93;;;;;;;;;;6195951;28;20211;-67
2023/10/12 06:00:36;;;;;;;11.10;7.47;;;;;;;;;;6200404;28;20219;-67
2023/10/12 06:03:40;;;;;;;10.67;6.20;;;;;;;;;;6199421;28;20227;-68
2023/10/12 06:06:42;;;;;;;13.57;7.20;;;;;;;;;;6216145;28;20191;-67
2023/10/12 06:09:43;;;;;;;12.97;6.33;;;;;;;;;;6221451;28;20199;-67
2023/10/12 06:12:46;;;;;;;10.60;6.37;;;;;;;;;;6219870;28;20187;-67
2023/10/12 06:15:53;;;;;;;15.47;7.30;;;;;;;;;;6205859;28;20215;-68
2023/10/12 06:18:54;;;;;;;13.67;7.30;;;;;;;;;;6202527;28;20188;-67
2023/10/12 06:21:59;;;;;;;11.20;6.87;;;;;;;;;;6202760;28;20286;-67
2023/10/12 06:25:00;;;;;;;10.63;6.23;;;;;;;;;;6215091;28;20251;-67
2023/10/12 06:28:05;;;;;;;12.93;6.63;;;;;;;;;;6198242;28;20248;-68
2023/10/12 06:31:07;;;;;;;10.90;6.37;;;;;;;;;;6217702;28;20188;-68
2023/10/12 06:34:10;;;;;;;12.97;7.30;;;;;;;;;;6204284;28;20225;-67
2023/10/12 06:37:49;;;;;;;14.10;6.93;;;;;;;;;;6202126;28;20192;-67
2023/10/12 06:46:44;;;;;;;14.30;7.43;;;;;;;;;;6219575;28;20195;-67
2023/10/12 06:49:45;;;;;;;14.07;7.23;;;;;;;;;;6200509;28;20214;-68
2023/10/12 06:52:46;;;;;;;13.97;6.67;;;;;;;;;;6199772;28;20229;-67
2023/10/12 06:55:57;;;;;;;15.67;6.20;;;;;;;;;;6192484;28;20223;-67
2023/10/12 06:59:21;;;;;;;14.03;7.13;;;;;;;;;;6199272;28;20330;-68
2023/10/12 07:02:24;;;;;;;10.07;6.47;;;;;;;;;;6204539;28;20189;-67
2023/10/12 07:05:33;;;;;;;11.77;6.87;;;;;;;;;;6211453;28;20194;-68
2023/10/12 07:08:34;;;;;;;10.63;6.20;;;;;;;;;;6201245;28;20188;-67
2023/10/12 07:11:40;;;;;;;14.63;6.87;;;;;;;;;;6197817;28;20246;-68
2023/10/12 07:14:52;;;;;;;11.67;6.30;;;;;;;;;;6202369;28;20250;-68
2023/10/12 07:17:54;;;;;;;10.77;6.00;;;;;;;;;;6201302;28;20211;-68
2023/10/12 07:20:55;;;;;;;13.70;7.03;;;;;;;;;;6217712;28;20215;-68
2023/10/12 07:23:56;;;;;;;12.53;6.60;;;;;;;;;;6201844;28;20238;-67
2023/10/12 07:27:09;;;;;;;9.70;6.43;;;;;;;;;;6201818;28;20207;-67
2023/10/12 07:30:22;;;;;;;11.90;6.63;;;;;;;;;;6224766;28;20194;-67
2023/10/12 07:33:23;;;;;;;10.60;6.83;;;;;;;;;;6217396;28;20241;-68
2023/10/12 07:36:44;;;;;;;14.77;6.70;;;;;;;;;;6207705;28;20225;-67
2023/10/12 07:39:45;;;;;;;13.60;7.00;;;;;;;;;;6210482;28;20195;-68
2023/10/12 07:42:46;;;;;;;14.83;7.20;;;;;;;;;;6198334;28;20221;-68
2023/10/12 07:45:48;;;;;;;12.57;6.50;;;;;;;;;;6207137;28;20298;-68
2023/10/12 07:48:49;;;;;;;11.07;6.67;;;;;;;;;;6205772;28;20195;-68
2023/10/12 07:52:13;;;;;;;12.90;7.00;;;;;;;;;;6207363;28;20199;-68
2023/10/12 07:55:18;;;;;;;12.47;6.73;;;;;;;;;;6209262;28;20223;-68
2023/10/12 07:58:21;;;;;;;10.63;6.87;;;;;;;;;;6243773;28;20219;-68
2023/10/12 08:04:29;;;;;;;11.37;6.70;;;;;;;;;;6236315;28;20193;-68
2023/10/12 08:07:55;;;;;;;11.27;7.10;;;;;;;;;;6219364;28;20195;-68
2023/10/12 08:10:59;;;;;;;9.50;6.23;;;;;;;;;;6230511;28;20274;-67
2023/10/12 08:14:19;;;;;;;12.53;6.73;;;;;;;;;;6209065;28;20223;-68
2023/10/12 08:17:33;;;;;;;9.23;6.13;;;;;;;;;;6208655;28;20199;-68
2023/10/12 08:20:53;;;;;;;10.07;6.53;;;;;;;;;;6213958;28;20184;-67
2023/10/12 08:24:02;;;;;;;12.80;6.50;;;;;;;;;;6209307;28;20246;-68
2023/10/12 08:27:06;;;;;;;10.83;6.50;;;;;;;;;;6209296;28;20188;-67
2023/10/12 08:30:48;;;;;;;12.70;6.67;;;;;;;;;;6205409;28;20234;-68
2023/10/12 08:33:49;;;;;;;13.80;7.03;;;;;;;;;;6225222;28;20195;-68
2023/10/12 08:40:18;;;;;;;10.27;5.90;;;;;;;;;;6218132;28;20196;-68
2023/10/12 08:43:42;;;;;;;10.37;6.53;;;;;;;;;;6211969;28;20279;-67
2023/10/12 08:49:52;;;;;;;8.83;6.13;;;;;;;;;;6218643;28;20207;-68
2023/10/12 08:52:57;;;;;;;12.10;6.57;;;;;;;;;;6204706;28;20227;-67
2023/10/12 08:56:00;;;;;;;9.10;5.80;;;;;;;;;;6218354;28;20209;-68
2023/10/12 08:59:04;;;;;;;11.37;6.43;;;;;;;;;;6201554;28;20191;-67
2023/10/12 09:02:19;;;;;;;10.50;6.30;;;;;;;;;;6222317;28;20322;-67
2023/10/12 09:05:24;;;;;;;10.40;6.57;;;;;;;;;;6216041;28;20199;-68
2023/10/12 09:11:33;;;;;;;9.90;6.10;;;;;;;;;;6231717;28;20285;-68
2023/10/12 09:14:34;;;;;;;13.00;6.20;;;;;;;;;;6205338;28;20354;-68
2023/10/12 09:17:40;;;;;;;9.07;5.77;;;;;;;;;;6203391;28;20190;-67
2023/10/12 09:20:57;;;;;;;10.93;6.03;;;;;;;;;;6198333;28;20195;-68
2023/10/12 09:24:05;;;;;;;13.53;5.57;;;;;;;;;;6216332;28;20239;-68
2023/10/12 09:27:12;;;;;;;9.77;5.50;;;;;;;;;;6207220;28;20200;-68
2023/10/12 09:30:17;;;;;;;15.90;5.80;;;;;;;;;;6223295;28;20183;-68
2023/10/12 09:36:55;;;;;;;8.90;5.67;;;;;;;;;;6176614;28;20203;-68
2023/10/12 09:39:56;;;;;;;14.53;5.53;;;;;;;;;;6222189;28;20232;-68
2023/10/12 09:43:07;;;;;;;9.40;5.20;;;;;;;;;;6199280;28;20195;-68
2023/10/12 09:46:09;;;;;;;9.30;5.30;;;;;;;;;;6222990;28;20192;-69
2023/10/12 09:49:21;;;;;;;8.83;5.70;;;;;;;;;;6215109;28;20174;-68
2023/10/12 09:52:41;;;;;;;9.20;5.50;;;;;;;;;;6213295;28;20279;-68
2023/10/12 09:55:53;;;;;;;9.43;5.43;;;;;;;;;;6218816;28;20227;-68
2023/10/12 10:02:27;;;;;;;14.23;4.93;;;;;;;;;;6241545;28;20183;-68
2023/10/12 10:05:39;;;;;;;12.57;5.90;;;;;;;;;;6218971;28;20266;-67
2023/10/12 10:08:46;;;;;;;8.07;5.10;;;;;;;;;;6202280;28;20188;-68
2023/10/12 10:11:57;;;;;;;11.37;5.93;;;;;;;;;;6199882;28;20187;-69
2023/10/12 10:15:10;;;;;;;9.00;5.17;;;;;;;;;;6213648;28;20203;-70
2023/10/12 10:18:16;;;;;;;8.47;5.53;;;;;;;;;;6200030;28;20196;-69
2023/10/12 10:21:22;;;;;;;11.20;5.33;;;;;;;;;;6204939;28;20183;-70
2023/10/12 10:24:26;;;;;;;12.93;5.33;;;;;;;;;;6210973;28;20243;-71
2023/10/12 10:27:38;;;;;;;11.87;5.63;;;;;;;;;;6211358;28;20193;-69
2023/10/12 10:30:42;;;;;;;11.70;5.20;;;;;;;;;;6211278;28;20203;-68
2023/10/12 10:33:48;;;;;;;7.17;4.90;;;;;;;;;;6227205;28;20190;-68
2023/10/12 10:36:53;;;;;;;11.57;5.30;;;;;;;;;;6207768;28;20191;-68
2023/10/12 10:39:57;;;;;;;9.50;5.10;;;;;;;;;;6215513;28;20195;-68
2023/10/12 10:43:05;;;;;;;9.53;4.50;;;;;;;;;;6208470;28;20191;-68
2023/10/12 10:46:09;;;;;;;12.40;5.37;;;;;;;;;;6219202;28;20215;-68
2023/10/12 10:49:15;;;;;;;9.47;5.63;;;;;;;;;;6233314;28;20233;-68
2023/10/12 10:52:20;;;;;;;6.33;4.60;;;;;;;;;;6214199;28;20274;-68
2023/10/12 10:55:24;;;;;;;8.83;4.83;;;;;;;;;;6207819;28;20211;-68
2023/10/12 10:58:25;;;;;;;9.33;5.33;;;;;;;;;;6228971;28;20209;-68
2023/10/12 11:01:26;;;;;;;8.43;4.80;;;;;;;;;;6231413;28;20280;-68
2023/10/12 11:07:34;;;;;;;10.00;5.30;;;;;;;;;;6218981;28;20194;-69
2023/10/12 11:11:14;;;;;;;12.17;5.40;;;;;;;;;;6208597;28;20194;-69
2023/10/12 11:13:59;;;;;;;12.23;5.50;;;;;;;;;;6221000;28;20196;-68
2023/10/12 11:17:04;;;;;;;9.27;4.97;;;;;;;;;;6227414;28;20244;-68
2023/10/12 11:20:09;;;;;;;9.83;5.23;;;;;;;;;;6226715;28;20202;-67
2023/10/12 11:23:11;;;;;;;8.83;4.70;;;;;;;;;;6207508;28;20191;-66
2023/10/12 11:26:18;;;;;;;8.07;5.20;;;;;;;;;;6229166;28;20231;-67
2023/10/12 11:29:19;;;;;;;6.70;4.60;;;;;;;;;;6211074;28;20230;-66
2023/10/12 11:32:20;;;;;;;11.07;5.23;;;;;;;;;;6213526;28;20195;-67
2023/10/12 11:35:37;;;;;;;7.83;4.87;;;;;;;;;;6205281;28;20259;-68
2023/10/12 11:38:38;;;;;;;7.33;4.90;;;;;;;;;;6211967;28;20192;-68
2023/10/12 11:41:39;;;;;;;13.00;6.13;;;;;;;;;;6213824;28;20253;-68
2023/10/12 11:44:44;;;;;;;9.13;5.60;;;;;;;;;;6205776;28;20321;-68
2023/10/12 11:47:46;;;;;;;12.63;6.13;;;;;;;;;;6231999;28;20190;-68
2023/10/12 11:50:48;;;;;;;16.57;6.63;;;;;;;;;;6210191;28;20195;-67
2023/10/12 11:53:53;;;;;;;13.57;5.77;;;;;;;;;;6231040;28;20198;-68
2023/10/12 11:56:54;;;;;;;11.03;5.87;;;;;;;;;;6209408;28;20281;-67
2023/10/12 11:59:58;;;;;;;13.10;6.50;;;;;;;;;;6206513;28;20195;-67
2023/10/12 12:02:59;;;;;;;13.70;5.53;;;;;;;;;;6224763;28;20227;-68
2023/10/12 12:06:02;;;;;;;13.50;5.60;;;;;;;;;;6215190;28;20201;-68
2023/10/12 12:09:07;;;;;;;10.97;5.53;;;;;;;;;;6223713;28;20190;-68
2023/10/12 12:12:12;;;;;;;7.20;5.80;;;;;;;;;;6217515;28;20191;-67
2023/10/12 12:15:15;;;;;;;10.67;5.73;;;;;;;;;;6211413;28;20301;-67
2023/10/12 12:18:21;;;;;;;16.80;6.53;;;;;;;;;;6208237;28;20187;-67
2023/10/12 12:21:34;;;;;;;9.93;4.90;;;;;;;;;;6228279;28;20191;-67
2023/10/12 12:24:35;;;;;;;10.20;5.13;;;;;;;;;;6225719;28;20239;-67
2023/10/12 12:27:39;;;;;;;7.93;4.77;;;;;;;;;;6204727;28;20190;-67
2023/10/12 12:31:04;;;;;;;11.53;5.57;;;;;;;;;;6215759;28;20194;-68
2023/10/12 12:34:06;;;;;;;11.30;5.43;;;;;;;;;;6229010;28;20204;-68
2023/10/12 12:37:07;;;;;;;8.17;5.63;;;;;;;;;;6214269;28;20187;-68
2023/10/12 12:40:29;;;;;;;14.00;5.57;;;;;;;;;;6206221;28;20183;-68
2023/10/12 12:43:33;;;;;;;8.73;5.50;;;;;;;;;;6206135;28;20197;-68
2023/10/12 12:46:34;;;;;;;11.87;5.77;;;;;;;;;;6211627;28;20222;-68
2023/10/12 12:49:35;;;;;;;12.03;5.33;;;;;;;;;;6209367;28;20198;-68
2023/10/12 12:52:36;;;;;;;8.40;5.00;;;;;;;;;;6208333;28;20198;-68
2023/10/12 12:55:41;;;;;;;10.10;4.87;;;;;;;;;;6214758;28;20296;-68
2023/10/12 12:58:49;;;;;;;10.00;4.87;;;;;;;;;;6219737;28;20289;-68
2023/10/12 13:01:50;;;;;;;13.57;6.00;;;;;;;;;;6219883;28;20198;-68
2023/10/12 13:04:50;;;;;;;15.57;5.83;;;25.20;57.00;;;;;;6196151;28;20296;-68
2023/10/12 13:07:51;;;;;;;12.57;5.77;;;18.60;49.30;;;;;;6191050;28;20206;-69
2023/10/12 13:10:52;;;;;;;14.10;5.33;;;;;;;;;;6207253;28;20190;-68
2023/10/12 13:13:53;;;;;;;15.80;5.40;;;;;;;;;;6211047;28;20278;-68
2023/10/12 13:16:54;;;;;;;11.33;4.90;;;;;;;;;;6200492;28;20218;-68
2023/10/12 13:19:58;;;;;;;10.93;5.23;;;22.30;47.00;;;;;;6219927;28;20233;-68
2023/10/12 13:22:59;;;;;;;9.60;4.47;;;19.40;44.90;;;;;;6210967;28;20261;-68
2023/10/12 13:26:07;;;;;;;10.03;4.57;;;;;;;;;;6187173;28;20247;-68
2023/10/12 13:29:08;;;;;;;11.27;4.50;;;3.50;44.10;;;;;;6229159;28;20231;-67
2023/10/12 13:32:09;;;;;;;12.13;4.40;;;;;;;;;;6208857;28;20198;-68
2023/10/12 13:38:43;;;;;;;10.40;4.70;;;-29.80;38.10;;;;;;6197542;28;20198;-69
2023/10/12 13:41:44;;;;;;;8.45;4.72;;;;;;;;;;6190030;28;20233;-69
2023/10/12 13:44:47;;;;;;;9.13;4.50;;;-11.30;38.20;;;;;;6210461;28;20194;-68
2023/10/12 13:47:49;;;;;;;14.53;5.17;;;-27.80;37.90;;;;;;6207784;28;20179;-67
2023/10/12 13:51:17;;;;;;;11.13;5.57;;;;;;;;;;6213146;28;20264;-71
2023/10/12 13:54:19;;;;;;;9.17;4.77;;;;;;;;;;6231682;28;20210;-67
2023/10/12 13:57:21;;;;;;;6.40;4.40;;;;;;;;;;6214691;28;20198;-69
2023/10/12 14:00:26;;;;;;;8.63;4.10;;;;;;;;;;6212786;28;20190;-68
2023/10/12 14:03:28;;;;;;;9.17;4.17;;;6.40;40.30;;;;;;6211671;28;20182;-67
2023/10/12 14:06:29;;;;;;;11.13;4.83;;;;;;;;;;6206142;28;20213;-66
2023/10/12 14:09:33;;;;;;;8.70;4.70;;;-22.60;44.70;;;;;;6231128;28;20183;-72
2023/10/12 14:12:34;;;;;;;10.37;4.60;;;28.20;48.50;;;;;;6208162;28;20198;-72
2023/10/12 14:15:38;;;;;;;12.60;4.50;;;;;;;;;;6207285;28;20206;-68
2023/10/12 14:18:40;;;;;;;11.53;4.50;;;;;;;;;;6197022;28;20191;-67
2023/10/12 14:21:41;;;;;;;10.47;5.03;;;;;;;;;;6220193;28;20178;-67
2023/10/12 14:24:47;;;;;;;11.20;4.43;;;27.20;50.20;;;;;;6215323;28;20242;-68
2023/10/12 14:27:48;;;;;;;12.03;4.47;;;;;;;;;;6193244;28;20278;-68
2023/10/12 14:30:50;;;;;;;7.10;4.57;;;;;;;;;;6241619;28;20278;-68
2023/10/12 14:33:54;;;;;;;13.60;4.93;;;;;;;;;;6230576;28;20193;-68
2023/10/12 14:36:55;;;;;;;8.03;4.33;;;;;;;;;;6206810;28;20282;-65
2023/10/12 14:39:56;;;;;;;10.93;4.20;;;;;;;;;;6207800;28;20190;-66
2023/10/12 14:42:58;;;;;;;6.47;3.97;;;;;;;;;;6231580;28;20186;-68
2023/10/12 14:46:04;;;;;;;7.87;4.17;;;;;;;;;;6229173;28;20193;-68
2023/10/12 14:49:09;;;;;;;9.83;4.20;;;;;;;;;;6213874;28;20274;-66
2023/10/12 14:52:13;;;;;;;12.70;5.00;;;;;;;;;;6215472;28;20191;-69
2023/10/12 14:55:14;;;;;;;10.03;4.57;;;;;;;;;;6210153;28;20215;-69
2023/10/12 14:58:19;;;;;;;8.17;4.93;;;;;;;;;;6201418;28;20197;-69
2023/10/12 15:01:21;;;;;;;16.07;5.03;;;;;;;;;;6229769;28;20198;-68
2023/10/12 15:04:23;;;;;;;10.20;5.17;;;;;;;;;;6237868;28;20182;-68
2023/10/12 15:07:24;;;;;;;8.37;4.00;;;;;;;;;;6221638;28;20193;-68
2023/10/12 15:10:25;;;;;;;8.03;4.80;;;;;;;;;;6247327;28;20187;-68
2023/10/12 15:13:27;;;;;;;12.27;4.93;;;;;;;;;;6212953;28;20203;-68
2023/10/12 15:16:30;;;;;;;14.00;5.20;;;;;;;;;;6207132;28;20215;-68
2023/10/12 15:19:32;;;;;;;8.47;5.40;;;;;;;;;;6209938;28;20188;-68
2023/10/12 15:22:33;;;;;;;9.57;4.50;;;;;;;;;;6206347;28;20195;-68
2023/10/12 15:25:35;;;;;;;13.57;4.70;;;;;;;;;;6209860;28;20238;-68
2023/10/12 15:28:36;;;;;;;13.10;4.80;;;;;;;;;;6204792;28;20229;-67
2023/10/12 15:31:37;;;;;;;12.87;4.67;;;25.30;57.60;;;;;;6206808;28;20198;-67
2023/10/12 15:34:38;;;;;;;14.00;4.73;;;;;;;;;;6216620;28;20217;-67
2023/10/12 15:37:46;;;;;;;9.07;4.93;;;;;;;;;;6217058;28;20202;-67
2023/10/12 15:40:49;;;;;;;9.67;4.97;;;;;;;;;;6221828;28;20223;-67
2023/10/12 15:43:51;;;;;;;11.30;4.73;;;;;;;;;;6226669;28;20194;-68
2023/10/12 15:46:54;;;;;;;7.83;4.50;;;;;;;;;;6234712;28;20233;-68
2023/10/12 15:49:55;;;;;;;8.00;4.60;;;;;;;;;;6218250;28;20195;-68
2023/10/12 15:52:56;;;;;;;9.30;5.30;;;;;;;;;;6211481;28;20209;-68
2023/10/12 15:55:58;;;;;;;12.53;5.43;;;;;;;;;;6201129;28;20221;-68
2023/10/12 15:59:01;;;;;;;10.03;5.67;;;;;;;;;;6214280;28;20265;-67
2023/10/12 16:02:02;;;;;;;9.67;5.03;;;;;;;;;;6231347;28;20194;-68
2023/10/12 16:05:06;;;;;;;23.27;6.37;;;;;;;;;;6221630;28;20197;-68
2023/10/12 16:08:16;;;;;;;21.47;6.40;;;;;;;;;;6211033;28;20202;-68
2023/10/12 16:11:17;;;;;;;17.07;5.47;;;;;;;;;;6212690;28;20203;-68
2023/10/12 16:14:24;;;;;;;9.83;5.07;;;;;;;;;;6204103;28;20234;-68
2023/10/12 16:17:25;;;;;;;11.63;5.73;;;22.70;62.30;;;;;;6215881;28;20191;-69
2023/10/12 16:20:26;;;;;;;12.87;5.07;;;20.50;67.90;;;;;;6194606;28;20213;-67
2023/10/12 16:23:27;;;;;;;11.77;6.73;;;;;;;;;;6197594;28;20229;-68
2023/10/12 16:26:29;;;;;;;15.63;8.67;;;;;;;;;;6206602;28;20228;-68
2023/10/12 16:29:31;;;;;;;16.73;7.53;;;;;;;;;;6211314;28;20204;-68
2023/10/12 16:32:32;;;;;;;15.30;7.47;;;;;;;;;;6212447;28;20198;-67
2023/10/12 16:35:35;;;;;;;15.73;8.63;;;;;;;;;;6198109;28;20219;-68
2023/10/12 16:38:36;;;;;;;18.87;8.23;;;;;;;;;;6227391;28;20191;-67
2023/10/12 16:41:39;;;;;;;17.30;8.27;;;;;;;;;;6214369;28;20270;-68
2023/10/12 16:44:40;;;;;;;16.80;8.43;;;;;;;;;;6207019;28;20206;-68
2023/10/12 16:47:45;;;;;;;19.57;8.20;;;;;;;;;;6214144;28;20206;-69
2023/10/12 16:50:46;;;;;;;19.63;8.00;;;;;;;;;;6224810;28;20259;-68
2023/10/12 16:53:47;;;;;;;19.90;9.03;;;;;;;;;;6195822;28;20190;-68
2023/10/12 16:56:48;;;;;;;22.47;9.67;;;;;;;;;;6207558;28;20254;-68
2023/10/12 16:59:50;;;;;;;22.67;11.20;;;;;;;;;;6213507;28;20194;-68
2023/10/12 17:02:51;;;;;;;16.83;9.20;;;;;;;;;;6223423;28;20251;-68
2023/10/12 17:05:55;;;;;;;20.33;8.10;;;;;;;;;;6223387;28;20194;-68
2023/10/12 17:08:56;;;;;;;14.43;7.03;;;;;;;;;;6208602;28;20201;-68
2023/10/12 17:11:58;;;;;;;15.13;7.03;;;;;;;;;;6228308;28;20198;-68
2023/10/12 17:15:01;;;;;;;14.13;6.33;;;;;;;;;;6215630;28;20215;-68
2023/10/12 17:18:03;;;;;;;14.10;6.27;;;;;;;;;;6207173;28;20199;-67
2023/10/12 17:21:04;;;;;;;10.30;6.07;;;;;;;;;;6222034;28;20199;-67
2023/10/12 17:24:06;;;;;;;10.00;5.87;;;;;;;;;;6209109;28;20322;-67
2023/10/12 17:27:07;;;;;;;10.17;5.27;;;;;;;;;;6211721;28;20195;-67
2023/10/12 17:30:11;;;;;;;12.60;5.47;;;;;;;;;;6210990;28;20218;-67
2023/10/12 17:33:13;;;;;;;10.20;5.40;;;;;;;;;;6215236;28;20183;-67
2023/10/12 17:36:14;;;;;;;15.83;6.13;;;;;;;;;;6215523;28;20337;-67
2023/10/12 17:39:19;;;;;;;11.47;6.23;;;;;;;;;;6198073;28;20207;-67
2023/10/12 17:42:21;;;;;;;14.43;5.40;;;;;;;;;;6207097;28;20196;-68
2023/10/12 17:45:22;;;;;;;13.43;6.53;;;;;;;;;;6228306;28;20183;-65
2023/10/12 17:48:23;;;;;;;15.20;7.13;;;;;;;;;;6210025;28;20191;-65
2023/10/12 17:51:25;;;;;;;15.60;7.40;;;;;;;;;;6211806;28;20194;-68
2023/10/12 17:54:26;;;;;;;16.40;9.37;;;;;;;;;;6199322;28;20215;-68
2023/10/12 17:57:27;;;;;;;31.77;16.17;;;;;;;;;;6214556;28;20194;-67
2023/10/12 18:00:30;;;;;;;37.47;20.17;;;;;;;;;;6215483;28;20191;-67
2023/10/12 18:03:31;;;;;;;33.37;18.27;;;;;;;;;;6192096;28;20187;-68
2023/10/12 18:06:33;;;;;;;32.10;17.07;;;;;;;;;;6225932;28;20341;-68
2023/10/12 18:09:37;;;;;;;34.73;19.47;;;;;;;;;;6219428;28;20191;-67
2023/10/12 18:12:38;;;;;;;29.90;14.90;;;;;;;;;;6202639;28;20192;-68
2023/10/12 18:15:39;;;;;;;25.47;13.40;;;;;;;;;;6212691;28;20236;-66
2023/10/12 18:18:40;;;;;;;25.43;12.67;;;;;;;;;;6204764;28;20190;-67
2023/10/12 18:21:42;;;;;;;16.60;8.80;;;;;;;;;;6214868;28;20259;-66
2023/10/12 18:24:43;;;;;;;16.90;7.87;;;;;;;;;;6212732;28;20255;-66
2023/10/12 18:27:45;;;;;;;13.67;7.63;;;;;;;;;;6210753;28;20215;-67
2023/10/12 18:30:56;;;;;;;12.50;7.07;;;;;;;;;;6214525;28;20194;-67
2023/10/12 18:33:59;;;;;;;11.67;5.97;;;;;;;;;;6230641;28;20195;-67
2023/10/12 18:37:01;;;;;;;10.43;5.60;;;;;;;;;;6207162;28;20223;-67
2023/10/12 18:40:04;;;;;;;8.77;5.20;;;;;;;;;;6211132;28;20194;-66
2023/10/12 18:43:11;;;;;;;7.23;5.67;;;;;;;;;;6222939;28;20314;-67
2023/10/12 18:46:17;;;;;;;9.97;5.60;;;;;;;;;;6220908;28;20274;-67
2023/10/12 18:49:18;;;;;;;7.73;5.57;;;;;;;;;;6230418;28;20218;-67
2023/10/12 18:52:19;;;;;;;11.47;5.40;;;;;;;;;;6220187;28;20650;-67
2023/10/12 18:55:20;;;;;;;10.73;5.10;;;;;;;;;;6211061;28;20208;-67
2023/10/12 18:58:22;;;;;;;12.63;5.37;;;;;;;;;;6205555;28;20192;-67
2023/10/12 19:01:24;;;;;;;8.67;4.93;;;;;;;;;;6211947;28;20196;-66
2023/10/12 19:04:26;;;;;;;9.03;5.27;;;;;;;;;;6226791;28;20198;-68
2023/10/12 19:07:27;;;;;;;11.70;5.27;;;;;;;;;;6229506;28;20253;-69
2023/10/12 19:10:30;;;;;;;7.73;5.13;;;;;;;;;;6215983;28;20183;-69
2023/10/12 19:13:32;;;;;;;6.60;4.90;;;;;;;;;;6230145;28;20255;-68
2023/10/12 19:16:37;;;;;;;9.33;5.30;;;;;;;;;;6198522;28;20299;-69
2023/10/12 19:19:39;;;;;;;13.07;6.20;;;;;;;;;;6221847;28;20187;-69
2023/10/12 19:22:41;;;;;;;9.53;6.23;;;;;;;;;;6231643;28;20270;-68
2023/10/12 19:25:43;;;;;;;10.27;5.83;;;;;;;;;;6232278;28;20242;-68